createdAt,value
2018-02-23T00:00:13.579Z,-0.6
2018-02-23T00:02:13.607Z,-0.58
2018-02-23T00:03:28.021Z,-0.65
2018-02-23T00:04:28.284Z,-0.61
2018-02-23T00:05:13.647Z,-0.6
2018-02-23T00:06:13.645Z,-0.57
2018-02-23T00:07:13.664Z,-0.6
2018-02-23T00:08:13.415Z,-0.62
2018-02-23T00:09:13.685Z,-0.64
2018-02-23T00:10:13.701Z,-0.67
2018-02-23T00:11:13.717Z,-0.62
2018-02-23T00:12:13.461Z,-0.6
2018-02-23T00:13:28.409Z,-0.7
2018-02-23T00:14:28.447Z,-0.76
2018-02-23T00:15:13.769Z,-0.7
2018-02-23T00:16:13.780Z,-0.8
2018-02-23T00:17:13.796Z,-0.76
2018-02-23T00:18:13.810Z,-0.92
2018-02-23T00:19:13.818Z,-0.76
2018-02-23T00:20:13.837Z,-0.98
2018-02-23T00:21:13.850Z,-1.01
2018-02-23T00:22:13.859Z,-0.98
2018-02-23T00:23:13.865Z,-0.92
2018-02-23T00:24:13.874Z,-1.01
2018-02-23T00:25:13.885Z,-0.95
2018-02-23T00:26:13.664Z,-0.99
2018-02-23T00:27:13.904Z,-0.99
2018-02-23T00:28:28.589Z,-1.05
2018-02-23T00:29:28.591Z,-1.12
2018-02-23T00:30:13.941Z,-1.19
2018-02-23T00:31:13.953Z,-1.16
2018-02-23T00:32:13.986Z,-1.02
2018-02-23T00:33:13.737Z,-1.07
2018-02-23T00:34:14.110Z,-1.09
2018-02-23T00:35:28.662Z,-1.22
2018-02-23T00:36:14.019Z,-1.13
2018-02-23T00:37:28.683Z,-1.3
2018-02-23T00:38:13.515Z,-1.28
2018-02-23T00:39:14.099Z,-1.17
2018-02-23T00:40:28.712Z,-1.17
2018-02-23T00:41:14.077Z,-1.12
2018-02-23T00:42:14.085Z,-1.16
2018-02-23T00:44:28.786Z,-1.2
2018-02-23T00:45:28.773Z,-1.28
2018-02-23T00:46:14.134Z,-1.31
2018-02-23T00:47:13.883Z,-1.28
2018-02-23T00:48:14.159Z,-1.28
2018-02-23T00:49:14.182Z,-1.35
2018-02-23T00:50:14.174Z,-1.43
2018-02-23T00:51:14.201Z,-1.41
2018-02-23T00:52:14.209Z,-1.4
2018-02-23T00:53:14.232Z,-1.43
2018-02-23T00:54:14.244Z,-1.41
2018-02-23T00:55:14.233Z,-1.38
2018-02-23T00:56:13.997Z,-1.41
2018-02-23T00:57:14.004Z,-1.37
2018-02-23T00:58:14.275Z,-1.41
2018-02-23T00:59:14.285Z,-1.4
2018-02-23T01:01:14.302Z,-1.4
2018-02-23T01:02:14.329Z,-1.4
2018-02-23T01:03:14.330Z,-1.41
2018-02-23T01:04:14.341Z,-1.43
2018-02-23T01:05:14.100Z,-1.41
2018-02-23T01:06:14.369Z,-1.45
2018-02-23T01:07:14.411Z,-1.61
2018-02-23T01:08:14.409Z,-1.48
2018-02-23T01:09:14.424Z,-1.46
2018-02-23T01:10:29.068Z,-1.56
2018-02-23T01:11:14.419Z,-1.61
2018-02-23T01:12:14.442Z,-1.59
2018-02-23T01:13:14.442Z,-1.58
2018-02-23T01:14:14.467Z,-1.7
2018-02-23T01:15:14.481Z,-1.64
2018-02-23T01:16:14.532Z,-1.64
2018-02-23T01:17:14.487Z,-1.64
2018-02-23T01:18:14.502Z,-1.69
2018-02-23T01:19:14.519Z,-1.67
2018-02-23T01:20:14.272Z,-1.79
2018-02-23T01:21:14.557Z,-1.72
2018-02-23T01:22:14.558Z,-1.77
2018-02-23T01:23:14.308Z,-1.85
2018-02-23T01:24:14.309Z,-1.73
2018-02-23T01:26:14.596Z,-1.74
2018-02-23T01:27:29.279Z,-1.77
2018-02-23T01:28:14.648Z,-1.76
2018-02-23T01:29:14.375Z,-1.73
2018-02-23T01:30:14.648Z,-1.73
2018-02-23T01:31:14.669Z,-1.73
2018-02-23T01:32:29.321Z,-1.84
2018-02-23T01:33:14.419Z,-1.7
2018-02-23T01:35:14.708Z,-1.79
2018-02-23T01:36:14.726Z,-1.74
2018-02-23T01:37:14.463Z,-1.85
2018-02-23T01:38:14.740Z,-1.74
2018-02-23T01:39:14.481Z,-1.76
2018-02-23T01:40:14.763Z,-1.76
2018-02-23T01:41:29.423Z,-1.77
2018-02-23T01:42:14.784Z,-1.84
2018-02-23T01:43:14.798Z,-1.98
2018-02-23T01:44:14.807Z,-1.91
2018-02-23T01:45:14.649Z,-1.92
2018-02-23T01:46:14.827Z,-2
2018-02-23T01:47:14.832Z,-2
2018-02-23T01:48:29.500Z,-2.12
2018-02-23T01:49:14.877Z,-2.09
2018-02-23T01:50:14.870Z,-2
2018-02-23T01:51:14.632Z,-2.03
2018-02-23T01:52:14.906Z,-2.06
2018-02-23T01:53:14.905Z,-2.06
2018-02-23T01:54:14.909Z,-2.02
2018-02-23T01:55:14.923Z,-2.12
2018-02-23T01:56:14.674Z,-2.1
2018-02-23T01:57:14.959Z,-2.06
2018-02-23T01:58:14.960Z,-2.08
2018-02-23T02:00:14.993Z,-2.09
2018-02-23T02:01:15.001Z,-2.08
2018-02-23T02:02:29.670Z,-2.2
2018-02-23T02:03:15.042Z,-2.2
2018-02-23T02:04:29.678Z,-2.18
2018-02-23T02:06:15.058Z,-2.2
2018-02-23T02:07:15.082Z,-2.27
2018-02-23T02:08:15.069Z,-2.16
2018-02-23T02:10:14.838Z,-2.34
2018-02-23T02:11:15.112Z,-2.26
2018-02-23T02:12:14.858Z,-2.32
2018-02-23T02:13:15.143Z,-2.42
2018-02-23T02:14:15.150Z,-2.24
2018-02-23T02:15:14.895Z,-2.26
2018-02-23T02:16:15.160Z,-2.3
2018-02-23T02:17:15.184Z,-2.21
2018-02-23T02:18:15.189Z,-2.24
2018-02-23T02:19:15.194Z,-2.27
2018-02-23T02:20:29.870Z,-2.3
2018-02-23T02:21:15.210Z,-2.23
2018-02-23T02:22:15.224Z,-2.29
2018-02-23T02:23:15.246Z,-2.32
2018-02-23T02:24:15.261Z,-2.35
2018-02-23T02:25:15.268Z,-2.4
2018-02-23T02:26:15.277Z,-2.34
2018-02-23T02:27:15.289Z,-2.4
2018-02-23T02:28:15.302Z,-2.52
2018-02-23T02:29:29.960Z,-2.49
2018-02-23T02:30:15.320Z,-2.37
2018-02-23T02:31:15.340Z,-2.43
2018-02-23T02:32:15.356Z,-2.45
2018-02-23T02:33:15.108Z,-2.42
2018-02-23T02:34:15.379Z,-2.49
2018-02-23T02:35:30.050Z,-2.37
2018-02-23T02:36:15.395Z,-2.39
2018-02-23T02:37:15.399Z,-2.45
2018-02-23T02:38:15.421Z,-2.48
2018-02-23T02:39:15.436Z,-2.46
2018-02-23T02:40:14.912Z,-2.58
2018-02-23T02:41:15.453Z,-2.48
2018-02-23T02:42:15.206Z,-2.55
2018-02-23T02:43:15.473Z,-2.58
2018-02-23T02:44:15.473Z,-2.5
2018-02-23T02:45:15.482Z,-2.48
2018-02-23T02:46:15.489Z,-2.5
2018-02-23T02:47:15.501Z,-2.45
2018-02-23T02:48:15.530Z,-2.48
2018-02-23T02:49:15.536Z,-2.5
2018-02-23T02:51:15.289Z,-2.61
2018-02-23T02:52:15.307Z,-2.6
2018-02-23T02:53:15.579Z,-2.63
2018-02-23T02:54:15.589Z,-2.7
2018-02-23T02:55:15.594Z,-2.7
2018-02-23T02:56:15.610Z,-2.77
2018-02-23T02:57:15.618Z,-2.74
2018-02-23T02:58:15.631Z,-2.67
2018-02-23T02:59:15.643Z,-2.77
2018-02-23T03:00:30.304Z,-2.64
2018-02-23T03:01:15.411Z,-2.66
2018-02-23T03:02:30.339Z,-2.73
2018-02-23T03:03:15.685Z,-2.7
2018-02-23T03:06:15.724Z,-2.82
2018-02-23T03:07:30.388Z,-2.85
2018-02-23T03:08:15.737Z,-2.78
2018-02-23T03:09:15.758Z,-2.79
2018-02-23T03:10:15.765Z,-2.92
2018-02-23T03:11:15.781Z,-2.84
2018-02-23T03:12:15.783Z,-2.84
2018-02-23T03:13:15.784Z,-2.84
2018-02-23T03:14:15.796Z,-2.89
2018-02-23T03:15:15.807Z,-2.82
2018-02-23T03:16:15.820Z,-2.84
2018-02-23T03:17:15.851Z,-2.86
2018-02-23T03:18:15.858Z,-3.06
2018-02-23T03:19:15.850Z,-2.94
2018-02-23T03:20:15.865Z,-2.91
2018-02-23T03:21:30.538Z,-2.89
2018-02-23T03:22:30.547Z,-2.89
2018-02-23T03:23:30.563Z,-2.92
2018-02-23T03:24:15.927Z,-2.96
2018-02-23T03:25:15.921Z,-3.05
2018-02-23T03:26:15.921Z,-3.06
2018-02-23T03:27:15.938Z,-3.12
2018-02-23T03:28:15.952Z,-3.06
2018-02-23T03:29:15.957Z,-3.06
2018-02-23T03:30:15.977Z,-3.05
2018-02-23T03:31:15.741Z,-3.15
2018-02-23T03:32:16.003Z,-3.14
2018-02-23T03:33:16.010Z,-3.12
2018-02-23T03:34:16.011Z,-3.17
2018-02-23T03:35:16.030Z,-3.09
2018-02-23T03:36:16.037Z,-3.09
2018-02-23T03:37:16.039Z,-3.17
2018-02-23T03:38:16.061Z,-3.27
2018-02-23T03:39:30.738Z,-3.1
2018-02-23T03:40:16.082Z,-3.15
2018-02-23T03:41:16.125Z,-3.07
2018-02-23T03:42:16.114Z,-3.14
2018-02-23T03:43:16.110Z,-3.23
2018-02-23T03:44:16.119Z,-3.27
2018-02-23T03:45:16.143Z,-3.23
2018-02-23T03:46:30.797Z,-3.23
2018-02-23T03:47:16.169Z,-3.23
2018-02-23T03:48:30.817Z,-3.24
2018-02-23T03:49:30.829Z,-3.23
2018-02-23T03:52:16.206Z,-3.38
2018-02-23T03:53:16.213Z,-3.38
2018-02-23T03:54:16.232Z,-3.25
2018-02-23T03:55:30.889Z,-3.28
2018-02-23T03:56:16.252Z,-3.31
2018-02-23T03:57:16.264Z,-3.27
2018-02-23T03:59:16.274Z,-3.28
2018-02-23T04:00:16.300Z,-3.25
2018-02-23T04:01:16.295Z,-3.21
2018-02-23T04:02:16.311Z,-3.2
2018-02-23T04:04:16.345Z,-3.02
2018-02-23T04:06:16.097Z,-3.06
2018-02-23T04:07:16.366Z,-2.92
2018-02-23T04:08:16.393Z,-2.94
2018-02-23T04:09:16.406Z,-2.89
2018-02-23T04:10:31.062Z,-2.86
2018-02-23T04:11:16.409Z,-2.89
2018-02-23T04:12:16.522Z,-2.86
2018-02-23T04:13:16.432Z,-2.82
2018-02-23T04:14:16.449Z,-2.86
2018-02-23T04:15:16.464Z,-2.86
2018-02-23T04:16:16.460Z,-2.81
2018-02-23T04:18:16.482Z,-2.88
2018-02-23T04:19:16.499Z,-2.94
2018-02-23T04:20:16.523Z,-3
2018-02-23T04:21:16.509Z,-2.94
2018-02-23T04:22:16.528Z,-2.91
2018-02-23T04:23:16.591Z,-3.03
2018-02-23T04:24:16.033Z,-3.06
2018-02-23T04:25:16.560Z,-3.07
2018-02-23T04:26:16.559Z,-3.06
2018-02-23T04:27:16.581Z,-3.05
2018-02-23T04:28:16.600Z,-3.12
2018-02-23T04:29:16.342Z,-3.2
2018-02-23T04:30:16.609Z,-3.17
2018-02-23T04:31:16.623Z,-3.23
2018-02-23T04:32:16.630Z,-3.25
2018-02-23T04:33:31.296Z,-3.28
2018-02-23T04:34:16.660Z,-3.25
2018-02-23T04:35:16.667Z,-3.39
2018-02-23T04:36:16.670Z,-3.25
2018-02-23T04:37:16.688Z,-3.27
2018-02-23T04:38:31.344Z,-3.28
2018-02-23T04:39:16.698Z,-3.27
2018-02-23T04:40:16.454Z,-3.3
2018-02-23T04:41:16.833Z,-3.28
2018-02-23T04:42:31.128Z,-3.36
2018-02-23T04:43:16.747Z,-3.36
2018-02-23T04:44:16.765Z,-3.31
2018-02-23T04:45:16.768Z,-3.38
2018-02-23T04:46:16.782Z,-3.38
2018-02-23T04:47:16.528Z,-3.36
2018-02-23T04:48:16.799Z,-3.46
2018-02-23T04:49:16.950Z,-3.59
2018-02-23T04:50:16.817Z,-3.39
2018-02-23T04:51:16.820Z,-3.6
2018-02-23T04:52:16.839Z,-3.53
2018-02-23T04:53:16.853Z,-3.59
2018-02-23T04:54:16.350Z,-3.53
2018-02-23T04:55:16.625Z,-3.54
2018-02-23T04:56:16.900Z,-3.56
2018-02-23T04:58:31.559Z,-3.62
2018-02-23T04:59:16.913Z,-3.62
2018-02-23T05:00:16.920Z,-3.59
2018-02-23T05:01:16.942Z,-3.71
2018-02-23T05:02:16.952Z,-3.69
2018-02-23T05:03:16.954Z,-3.72
2018-02-23T05:04:16.799Z,-3.76
2018-02-23T05:05:16.722Z,-3.85
2018-02-23T05:06:31.640Z,-3.85
2018-02-23T05:07:16.999Z,-3.86
2018-02-23T05:08:17.024Z,-3.83
2018-02-23T05:09:17.018Z,-3.85
2018-02-23T05:10:17.021Z,-3.96
2018-02-23T05:11:17.038Z,-3.94
2018-02-23T05:12:17.049Z,-3.93
2018-02-23T05:13:17.074Z,-3.9
2018-02-23T05:14:31.720Z,-3.82
2018-02-23T05:15:17.082Z,-3.85
2018-02-23T05:16:17.095Z,-4
2018-02-23T05:17:17.089Z,-3.91
2018-02-23T05:18:17.163Z,-3.93
2018-02-23T05:19:17.124Z,-4.06
2018-02-23T05:20:17.133Z,-4.03
2018-02-23T05:21:17.150Z,-4.07
2018-02-23T05:22:17.157Z,-4.06
2018-02-23T05:23:31.811Z,-4.01
2018-02-23T05:24:16.657Z,-4.04
2018-02-23T05:25:31.835Z,-4.15
2018-02-23T05:26:17.196Z,-4.06
2018-02-23T05:27:17.203Z,-4.14
2018-02-23T05:28:17.218Z,-4.15
2018-02-23T05:29:17.220Z,-4.17
2018-02-23T05:30:31.629Z,-4.18
2018-02-23T05:31:16.974Z,-4.12
2018-02-23T05:32:17.259Z,-4.1
2018-02-23T05:33:17.265Z,-4.24
2018-02-23T05:34:17.023Z,-4.14
2018-02-23T05:35:17.289Z,-4.29
2018-02-23T05:36:17.293Z,-4.14
2018-02-23T05:37:17.302Z,-4.17
2018-02-23T05:38:17.322Z,-4.24
2018-02-23T05:39:17.316Z,-4.18
2018-02-23T05:40:17.329Z,-4.24
2018-02-23T05:41:17.101Z,-4.25
2018-02-23T05:42:17.349Z,-4.15
2018-02-23T05:43:17.368Z,-4.18
2018-02-23T05:45:31.787Z,-4.25
2018-02-23T05:46:17.388Z,-4.15
2018-02-23T05:47:17.404Z,-4.22
2018-02-23T05:48:17.411Z,-4.12
2018-02-23T05:49:17.425Z,-4.28
2018-02-23T05:50:31.834Z,-4.28
2018-02-23T05:51:17.463Z,-4.25
2018-02-23T05:52:17.451Z,-4.33
2018-02-23T05:53:17.466Z,-4.39
2018-02-23T05:55:31.879Z,-4.38
2018-02-23T05:56:17.498Z,-4.38
2018-02-23T05:57:17.505Z,-4.38
2018-02-23T05:58:17.527Z,-4.38
2018-02-23T05:59:17.529Z,-4.39
2018-02-23T06:00:17.527Z,-4.47
2018-02-23T06:01:17.552Z,-4.46
2018-02-23T06:02:17.558Z,-4.49
2018-02-23T06:03:17.568Z,-4.51
2018-02-23T06:04:17.579Z,-4.39
2018-02-23T06:05:17.336Z,-4.49
2018-02-23T06:06:17.612Z,-4.58
2018-02-23T06:07:17.599Z,-4.51
2018-02-23T06:08:17.619Z,-4.46
2018-02-23T06:09:17.629Z,-4.46
2018-02-23T06:10:17.627Z,-4.39
2018-02-23T06:11:32.043Z,-4.39
2018-02-23T06:12:17.663Z,-4.42
2018-02-23T06:13:17.411Z,-4.49
2018-02-23T06:14:17.678Z,-4.58
2018-02-23T06:15:17.690Z,-4.49
2018-02-23T06:17:32.369Z,-4.5
2018-02-23T06:18:17.718Z,-4.51
2018-02-23T06:19:17.723Z,-4.47
2018-02-23T06:20:17.836Z,-4.49
2018-02-23T06:21:17.480Z,-4.51
2018-02-23T06:22:17.774Z,-4.51
2018-02-23T06:24:17.536Z,-4.57
2018-02-23T06:25:17.538Z,-4.56
2018-02-23T06:26:17.541Z,-4.49
2018-02-23T06:27:17.799Z,-4.53
2018-02-23T06:28:17.807Z,-4.46
2018-02-23T06:29:17.816Z,-4.43
2018-02-23T06:30:17.850Z,-4.42
2018-02-23T06:31:17.850Z,-4.47
2018-02-23T06:32:17.854Z,-4.4
2018-02-23T06:33:32.532Z,-4.43
2018-02-23T06:34:17.883Z,-4.39
2018-02-23T06:35:17.909Z,-4.38
2018-02-23T06:36:17.889Z,-4.36
2018-02-23T06:37:17.912Z,-4.36
2018-02-23T06:38:32.316Z,-4.22
2018-02-23T06:39:17.669Z,-4.2
2018-02-23T06:40:17.936Z,-4.21
2018-02-23T06:41:17.699Z,-4.24
2018-02-23T06:42:17.948Z,-4.22
2018-02-23T06:43:17.982Z,-4.14
2018-02-23T06:44:18.087Z,-4.1
2018-02-23T06:45:17.743Z,-3.93
2018-02-23T06:46:17.757Z,-4.07
2018-02-23T06:47:18.013Z,-4
2018-02-23T06:48:18.066Z,-4.06
2018-02-23T06:49:32.699Z,-4.11
2018-02-23T06:50:18.070Z,-4.06
2018-02-23T06:51:18.085Z,-4.06
2018-02-23T06:52:18.078Z,-4.14
2018-02-23T06:53:18.081Z,-4.21
2018-02-23T06:54:18.107Z,-4.14
2018-02-23T06:55:18.117Z,-4.11
2018-02-23T06:56:32.779Z,-4.03
2018-02-23T06:57:18.141Z,-4.07
2018-02-23T06:58:17.888Z,-4.18
2018-02-23T06:59:18.172Z,-3.97
2018-02-23T07:00:32.825Z,-4.11
2018-02-23T07:01:18.188Z,-3.96
2018-02-23T07:03:18.199Z,-3.97
2018-02-23T07:04:17.963Z,-3.86
2018-02-23T07:05:32.900Z,-3.85
2018-02-23T07:06:18.252Z,-3.78
2018-02-23T07:07:18.285Z,-3.69
2018-02-23T07:08:18.270Z,-3.56
2018-02-23T07:09:18.290Z,-3.52
2018-02-23T07:10:18.294Z,-3.59
2018-02-23T07:11:18.578Z,-3.57
2018-02-23T07:12:18.348Z,-3.46
2018-02-23T07:13:18.354Z,-3.41
2018-02-23T07:14:18.352Z,-3.33
2018-02-23T07:15:18.378Z,-3.33
2018-02-23T07:16:18.393Z,-3.3
2018-02-23T07:17:18.394Z,-3.38
2018-02-23T07:18:18.421Z,-3.24
2018-02-23T07:19:18.438Z,-3.39
2018-02-23T07:20:33.111Z,-3.31
2018-02-23T07:21:18.452Z,-3.3
2018-02-23T07:22:18.643Z,-3.21
2018-02-23T07:23:18.232Z,-3.15
2018-02-23T07:24:18.509Z,-3.12
2018-02-23T07:25:18.516Z,-3.06
2018-02-23T07:26:18.528Z,-2.86
2018-02-23T07:27:18.553Z,-2.94
2018-02-23T07:28:33.226Z,-2.92
2018-02-23T07:30:18.599Z,-2.68
2018-02-23T07:31:18.615Z,-2.68
2018-02-23T07:32:18.634Z,-2.58
2018-02-23T07:33:18.642Z,-2.52
2018-02-23T07:34:33.325Z,-2.56
2018-02-23T07:35:33.342Z,-2.7
2018-02-23T07:36:18.706Z,-2.67
2018-02-23T07:37:18.699Z,-2.61
2018-02-23T07:38:18.744Z,-2.66
2018-02-23T07:39:18.488Z,-2.71
2018-02-23T07:40:18.756Z,-2.56
2018-02-23T07:41:18.770Z,-2.68
2018-02-23T07:42:18.801Z,-2.53
2018-02-23T07:43:18.813Z,-2.49
2018-02-23T07:44:18.825Z,-2.45
2018-02-23T07:45:18.582Z,-2.46
2018-02-23T07:46:18.342Z,-2.27
2018-02-23T07:47:18.874Z,-2.21
2018-02-23T07:48:18.891Z,-2.15
2018-02-23T07:49:18.903Z,-2.16
2018-02-23T07:50:18.922Z,-2.29
2018-02-23T07:52:33.601Z,-2.27
2018-02-23T07:53:18.963Z,-2.18
2018-02-23T07:54:18.724Z,-2.09
2018-02-23T07:55:18.989Z,-2.05
2018-02-23T07:56:19.017Z,-2.05
2018-02-23T07:57:19.032Z,-1.9
2018-02-23T07:58:19.062Z,-2
2018-02-23T07:59:18.801Z,-1.97
2018-02-23T08:00:19.071Z,-1.92
2018-02-23T08:01:19.101Z,-2.13
2018-02-23T08:02:19.100Z,-2.12
2018-02-23T08:03:19.127Z,-2.08
2018-02-23T08:04:19.142Z,-2.06
2018-02-23T08:05:19.147Z,-1.95
2018-02-23T08:07:19.173Z,-1.9
2018-02-23T08:08:33.869Z,-1.85
2018-02-23T08:09:18.965Z,-1.82
2018-02-23T08:10:19.238Z,-1.8
2018-02-23T08:11:19.247Z,-1.88
2018-02-23T08:12:33.920Z,-1.84
2018-02-23T08:13:19.031Z,-1.73
2018-02-23T08:14:33.943Z,-1.79
2018-02-23T08:15:18.782Z,-1.72
2018-02-23T08:16:33.973Z,-1.8
2018-02-23T08:17:33.991Z,-1.72
2018-02-23T08:18:34.000Z,-1.85
2018-02-23T08:19:19.370Z,-2.02
2018-02-23T08:20:19.411Z,-2.23
2018-02-23T08:21:19.397Z,-2.34
2018-02-23T08:22:19.403Z,-2.08
2018-02-23T08:23:19.176Z,-2.08
2018-02-23T08:24:34.102Z,-1.72
2018-02-23T08:25:19.205Z,-1.62
2018-02-23T08:27:19.228Z,-1.7
2018-02-23T08:28:19.252Z,-1.7
2018-02-23T08:29:19.531Z,-1.73
2018-02-23T08:30:19.528Z,-1.79
2018-02-23T08:31:34.196Z,-1.79
2018-02-23T08:32:19.558Z,-1.67
2018-02-23T08:34:19.351Z,-1.59
2018-02-23T08:35:19.590Z,-1.49
2018-02-23T08:36:19.644Z,-1.48
2018-02-23T08:37:19.628Z,-1.16
2018-02-23T08:38:19.666Z,-1.17
2018-02-23T08:39:19.661Z,-1.12
2018-02-23T08:40:34.337Z,-1.13
2018-02-23T08:41:19.687Z,-1.17
2018-02-23T08:42:19.457Z,-1.16
2018-02-23T08:43:19.713Z,-0.97
2018-02-23T08:44:19.485Z,-0.89
2018-02-23T08:45:19.756Z,-0.98
2018-02-23T08:46:19.773Z,-1.07
2018-02-23T08:47:34.431Z,-1.16
2018-02-23T08:48:19.791Z,-1.38
2018-02-23T08:49:19.543Z,-1.12
2018-02-23T08:50:19.828Z,-0.99
2018-02-23T08:51:19.585Z,-0.98
2018-02-23T08:52:19.845Z,-0.89
2018-02-23T08:53:19.873Z,-0.94
2018-02-23T08:54:19.883Z,-0.83
2018-02-23T08:55:34.545Z,-0.69
2018-02-23T08:56:19.898Z,-0.8
2018-02-23T08:57:19.672Z,-0.7
2018-02-23T08:58:19.931Z,-0.61
2018-02-23T08:59:19.957Z,-0.54
2018-02-23T09:00:19.958Z,-0.47
2018-02-23T09:01:20.028Z,-0.47
2018-02-23T09:02:19.742Z,-0.52
2018-02-23T09:03:19.764Z,-0.67
2018-02-23T09:04:20.042Z,-0.85
2018-02-23T09:05:20.040Z,-0.82
2018-02-23T09:06:20.054Z,-0.7
2018-02-23T09:07:20.128Z,-0.55
2018-02-23T09:08:20.090Z,-0.49
2018-02-23T09:09:20.107Z,-0.33
2018-02-23T09:10:19.853Z,-0.33
2018-02-23T09:11:20.239Z,-0.25
2018-02-23T09:12:20.155Z,-0.14
2018-02-23T09:13:20.163Z,-0.23
2018-02-23T09:15:20.195Z,-0.34
2018-02-23T09:16:20.223Z,-0.23
2018-02-23T09:17:20.217Z,-0.08
2018-02-23T09:18:20.246Z,-0.14
2018-02-23T09:19:19.985Z,-0.19
2018-02-23T09:20:20.276Z,-0.14
2018-02-23T09:21:20.289Z,-0.01
2018-02-23T09:22:34.945Z,-0.05
2018-02-23T09:23:20.060Z,-0.05
2018-02-23T09:24:20.079Z,0.1
2018-02-23T09:25:20.343Z,-0.03
2018-02-23T09:26:20.351Z,-0.15
2018-02-23T09:27:35.026Z,-0.43
2018-02-23T09:30:20.431Z,0.02
2018-02-23T09:31:20.167Z,0.07
2018-02-23T09:32:20.454Z,-0.01
2018-02-23T09:33:20.480Z,0.24
2018-02-23T09:34:35.135Z,0.31
2018-02-23T09:35:20.502Z,0.2
2018-02-23T09:36:20.516Z,0.14
2018-02-23T09:37:35.175Z,0.13
2018-02-23T09:39:20.560Z,0.32
2018-02-23T09:40:20.313Z,0.39
2018-02-23T09:41:20.583Z,0.28
2018-02-23T09:42:20.609Z,0.02
2018-02-23T09:43:35.340Z,0.18
2018-02-23T09:44:20.642Z,0.29
2018-02-23T09:45:20.653Z,0.29
2018-02-23T09:46:20.668Z,0.24
2018-02-23T09:47:20.422Z,0.28
2018-02-23T09:48:20.709Z,0.33
2018-02-23T09:49:20.444Z,0.28
2018-02-23T09:50:20.832Z,0.31
2018-02-23T09:51:20.741Z,0.26
2018-02-23T09:52:20.760Z,0.07
2018-02-23T09:53:20.769Z,0.2
2018-02-23T09:54:20.777Z,0.21
2018-02-23T09:55:20.808Z,0.13
2018-02-23T09:57:20.932Z,0.13
2018-02-23T09:58:20.852Z,0.31
2018-02-23T09:59:35.524Z,0.26
2018-02-23T10:00:20.631Z,0.28
2018-02-23T10:01:20.897Z,0.36
2018-02-23T10:02:20.916Z,0.38
2018-02-23T10:03:20.671Z,0.38
2018-02-23T10:04:20.692Z,0.49
2018-02-23T10:05:20.956Z,0.5
2018-02-23T10:06:20.962Z,0.42
2018-02-23T10:07:35.640Z,0.33
2018-02-23T10:08:21.003Z,0.35
2018-02-23T10:09:21.006Z,0.35
2018-02-23T10:10:35.704Z,0.32
2018-02-23T10:11:21.056Z,0.23
2018-02-23T10:12:20.816Z,0.24
2018-02-23T10:13:21.074Z,0.29
2018-02-23T10:14:21.094Z,0.23
2018-02-23T10:15:35.758Z,0
2018-02-23T10:16:35.785Z,0.07
2018-02-23T10:17:21.141Z,0.1
2018-02-23T10:19:21.160Z,0.04
2018-02-23T10:20:21.187Z,0.02
2018-02-23T10:21:21.407Z,0
2018-02-23T10:22:35.867Z,0.07
2018-02-23T10:23:21.240Z,0.04
2018-02-23T10:24:21.245Z,0.03
2018-02-23T10:26:21.266Z,0.13
2018-02-23T10:27:21.294Z,0.26
2018-02-23T10:28:21.297Z,0.23
2018-02-23T10:29:21.313Z,0.13
2018-02-23T10:30:35.990Z,0.26
2018-02-23T10:31:21.353Z,0.15
2018-02-23T10:32:21.377Z,-0.03
2018-02-23T10:34:21.400Z,0.02
2018-02-23T10:35:21.141Z,-0.1
2018-02-23T10:36:21.451Z,-0.46
2018-02-23T10:38:21.482Z,-0.49
2018-02-23T10:39:21.469Z,-0.36
2018-02-23T10:40:21.492Z,-0.22
2018-02-23T10:42:21.512Z,-0.22
2018-02-23T10:43:21.533Z,-0.25
2018-02-23T10:44:21.557Z,-0.23
2018-02-23T10:45:21.580Z,-0.23
2018-02-23T10:46:21.310Z,-0.29
2018-02-23T10:47:21.601Z,-0.49
2018-02-23T10:48:21.596Z,-0.67
2018-02-23T10:49:21.616Z,-0.72
2018-02-23T10:50:21.375Z,-0.79
2018-02-23T10:51:21.664Z,-0.62
2018-02-23T10:53:21.416Z,-0.62
2018-02-23T10:54:21.698Z,-0.64
2018-02-23T10:55:21.446Z,-0.8
2018-02-23T10:56:21.723Z,-0.91
2018-02-23T10:57:36.390Z,-0.95
2018-02-23T10:58:21.467Z,-1.01
2018-02-23T10:59:21.749Z,-1.04
2018-02-23T11:00:21.773Z,-0.82
2018-02-23T11:01:21.507Z,-1.05
2018-02-23T11:02:36.439Z,-1.07
2018-02-23T11:03:21.537Z,-1.04
2018-02-23T11:04:21.806Z,-1.05
2018-02-23T11:05:21.841Z,-1.01
2018-02-23T11:06:21.853Z,-1.01
2018-02-23T11:08:21.895Z,-1.07
2018-02-23T11:09:21.879Z,-0.99
2018-02-23T11:10:21.886Z,-0.83
2018-02-23T11:11:21.911Z,-0.73
2018-02-23T11:12:21.918Z,-0.54
2018-02-23T11:13:21.936Z,-0.36
2018-02-23T11:14:21.692Z,-0.29
2018-02-23T11:15:21.970Z,-0.03
2018-02-23T11:16:21.978Z,-0.1
2018-02-23T11:17:22.095Z,-0.14
2018-02-23T11:18:36.736Z,-0.18
2018-02-23T11:19:22.013Z,-0.31
2018-02-23T11:20:21.768Z,-0.33
2018-02-23T11:21:22.042Z,-0.58
2018-02-23T11:22:22.042Z,-0.57
2018-02-23T11:23:22.065Z,-0.54
2018-02-23T11:24:22.171Z,-0.44
2018-02-23T11:25:36.745Z,-0.31
2018-02-23T11:26:21.854Z,-0.25
2018-02-23T11:27:22.132Z,-0.21
2018-02-23T11:28:21.879Z,-0.14
2018-02-23T11:29:22.144Z,-0.03
2018-02-23T11:30:22.149Z,-0.11
2018-02-23T11:31:21.900Z,-0.07
2018-02-23T11:32:21.915Z,0.02
2018-02-23T11:33:22.200Z,-0.04
2018-02-23T11:34:36.859Z,-0.03
2018-02-23T11:36:22.017Z,0.24
2018-02-23T11:37:22.245Z,0.14
2018-02-23T11:38:22.272Z,-0.14
2018-02-23T11:39:22.265Z,-0.42
2018-02-23T11:40:22.290Z,-0.65
2018-02-23T11:41:22.291Z,-0.55
2018-02-23T11:42:36.965Z,-0.33
2018-02-23T11:43:36.973Z,-0.21
2018-02-23T11:44:22.345Z,-0.34
2018-02-23T11:45:22.363Z,-0.42
2018-02-23T11:46:22.366Z,-0.31
2018-02-23T11:47:22.378Z,-0.04
2018-02-23T11:48:22.405Z,0.15
2018-02-23T11:50:37.081Z,0
2018-02-23T11:51:22.160Z,0.04
2018-02-23T11:52:22.187Z,-0.03
2018-02-23T11:53:22.186Z,-0.19
2018-02-23T11:54:22.469Z,-0.11
2018-02-23T11:55:22.218Z,-0.1
2018-02-23T11:56:22.493Z,0.04
2018-02-23T11:57:22.498Z,0.18
2018-02-23T11:58:22.524Z,0.03
2018-02-23T11:59:22.284Z,0.02
2018-02-23T12:00:22.294Z,-0.15
2018-02-23T12:01:22.560Z,-0.18
2018-02-23T12:02:22.571Z,-0.25
2018-02-23T12:03:22.587Z,-0.18
2018-02-23T12:05:37.264Z,-0.22
2018-02-23T12:06:37.283Z,0
2018-02-23T12:07:22.635Z,0.18
2018-02-23T12:08:22.648Z,0.13
2018-02-23T12:09:22.668Z,0.11
2018-02-23T12:10:22.419Z,0
2018-02-23T12:11:22.705Z,-0.04
2018-02-23T12:12:22.708Z,-0.01
2018-02-23T12:13:22.704Z,-0.03
2018-02-23T12:14:22.463Z,-0.05
2018-02-23T12:15:22.482Z,0.04
2018-02-23T12:16:22.754Z,0.02
2018-02-23T12:17:22.753Z,0.23
2018-02-23T12:18:22.778Z,0.32
2018-02-23T12:19:22.781Z,0.33
2018-02-23T12:20:22.794Z,0.33
2018-02-23T12:21:23.038Z,0.32
2018-02-23T12:22:22.560Z,0.35
2018-02-23T12:23:22.852Z,0.38
2018-02-23T12:24:22.899Z,0.39
2018-02-23T12:25:22.874Z,0.1
2018-02-23T12:26:22.890Z,-0.08
2018-02-23T12:27:22.896Z,-0.16
2018-02-23T12:28:22.701Z,-0.33
2018-02-23T12:29:22.657Z,-0.18
2018-02-23T12:30:22.930Z,0.15
2018-02-23T12:31:37.597Z,0.33
2018-02-23T12:32:37.606Z,0.38
2018-02-23T12:33:22.964Z,0.55
2018-02-23T12:34:22.973Z,0.35
2018-02-23T12:35:37.658Z,0.42
2018-02-23T12:36:22.744Z,0.38
2018-02-23T12:37:37.673Z,0.58
2018-02-23T12:38:37.694Z,0.61
2018-02-23T12:39:23.042Z,0.68
2018-02-23T12:41:23.069Z,0.51
2018-02-23T12:42:23.078Z,0.35
2018-02-23T12:43:22.843Z,0.17
2018-02-23T12:44:23.111Z,0.35
2018-02-23T12:47:22.886Z,0.33
2018-02-23T12:48:23.170Z,0.28
2018-02-23T12:49:23.171Z,0.14
2018-02-23T12:50:23.196Z,-0.01
2018-02-23T12:51:23.206Z,-0.15
2018-02-23T12:52:37.876Z,-0.15
2018-02-23T12:53:37.882Z,0.02
2018-02-23T12:55:23.256Z,0.17
2018-02-23T12:57:23.029Z,0.51
2018-02-23T12:58:23.298Z,0.58
2018-02-23T12:59:23.307Z,0.68
2018-02-23T13:00:37.992Z,0.62
2018-02-23T13:01:23.323Z,0.62
2018-02-23T13:02:23.355Z,0.72
2018-02-23T13:03:38.008Z,0.73
2018-02-23T13:04:38.023Z,0.75
2018-02-23T13:05:23.396Z,0.72
2018-02-23T13:06:23.399Z,0.84
2018-02-23T13:07:23.421Z,0.75
2018-02-23T13:08:23.426Z,0.69
2018-02-23T13:10:23.455Z,0.68
2018-02-23T13:11:23.455Z,0.55
2018-02-23T13:12:23.211Z,0.53
2018-02-23T13:13:23.489Z,0.49
2018-02-23T13:14:38.154Z,0.51
2018-02-23T13:15:23.270Z,0.68
2018-02-23T13:16:23.258Z,0.55
2018-02-23T13:17:23.538Z,0.51
2018-02-23T13:18:23.552Z,0.41
2018-02-23T13:19:23.575Z,0.51
2018-02-23T13:20:37.972Z,0.33
2018-02-23T13:21:38.253Z,0.42
2018-02-23T13:22:23.600Z,0.39
2018-02-23T13:23:23.610Z,0.39
2018-02-23T13:24:23.631Z,0.5
2018-02-23T13:25:38.043Z,0.41
2018-02-23T13:26:23.647Z,0.39
2018-02-23T13:27:23.405Z,0.32
2018-02-23T13:28:23.675Z,0.36
2018-02-23T13:29:23.435Z,0.35
2018-02-23T13:30:23.733Z,0.33
2018-02-23T13:31:23.709Z,0.31
2018-02-23T13:32:23.747Z,0.35
2018-02-23T13:33:23.780Z,0.53
2018-02-23T13:34:23.771Z,0.53
2018-02-23T13:35:23.516Z,0.39
2018-02-23T13:36:23.576Z,0.38
2018-02-23T13:37:23.553Z,0.38
2018-02-23T13:38:23.808Z,0.36
2018-02-23T13:39:23.826Z,0.53
2018-02-23T13:41:23.859Z,0.8
2018-02-23T13:42:23.608Z,0.86
2018-02-23T13:43:23.882Z,0.87
2018-02-23T13:44:23.886Z,0.87
2018-02-23T13:45:23.892Z,0.9
2018-02-23T13:46:38.568Z,0.88
2018-02-23T13:47:23.661Z,0.78
2018-02-23T13:48:23.934Z,0.6
2018-02-23T13:49:23.948Z,0.61
2018-02-23T13:50:23.960Z,0.49
2018-02-23T13:51:23.988Z,0.47